createdAt,value
2019-02-04T00:03:20.897Z,74.18
2019-02-04T00:07:28.748Z,74.50
2019-02-04T00:11:36.729Z,74.50
2019-02-04T00:15:44.917Z,73.96
2019-02-04T00:19:52.936Z,73.70
2019-02-04T00:24:00.622Z,73.85
2019-02-04T00:28:08.373Z,73.40
2019-02-04T00:32:16.205Z,73.61
2019-02-04T00:36:24.552Z,73.61
2019-02-04T00:40:32.307Z,73.54
2019-02-04T00:44:40.266Z,74.18
2019-02-04T00:48:47.808Z,74.41
2019-02-04T00:52:55.972Z,74.56
2019-02-04T00:57:04.299Z,74.49
2019-02-04T01:01:12.053Z,74.29
2019-02-04T01:05:20.828Z,73.92
2019-02-04T01:09:28.782Z,73.05
2019-02-04T01:13:36.686Z,73.00
2019-02-04T01:17:45.366Z,73.08
2019-02-04T01:21:54.262Z,74.11
2019-02-04T01:26:02.003Z,74.14
2019-02-04T01:30:10.355Z,73.75
2019-02-04T01:34:18.278Z,73.28
2019-02-04T01:38:26.180Z,73.09
2019-02-04T01:42:34.174Z,73.62
2019-02-04T01:46:41.886Z,73.62
2019-02-04T01:50:49.728Z,73.46
2019-02-04T01:54:57.418Z,74.17
2019-02-04T01:59:05.336Z,74.42
2019-02-04T02:03:13.235Z,74.35
2019-02-04T02:07:21.156Z,74.09
2019-02-04T02:11:29.436Z,73.78
2019-02-04T02:15:37.344Z,74.11
2019-02-04T02:19:45.251Z,74.61
2019-02-04T02:23:53.225Z,74.24
2019-02-04T02:28:00.951Z,74.34
2019-02-04T02:32:08.844Z,74.72
2019-02-04T02:36:16.754Z,74.56
2019-02-04T02:40:27.275Z,74.25
2019-02-04T02:44:34.772Z,73.83
2019-02-04T02:48:42.456Z,74.32
2019-02-04T02:52:50.175Z,74.42
2019-02-04T02:56:58.070Z,74.46
2019-02-04T03:01:06.167Z,74.45
2019-02-04T03:05:15.176Z,73.96
2019-02-04T03:09:22.664Z,74.03
2019-02-04T03:13:30.580Z,74.31
2019-02-04T03:17:51.113Z,74.63
2019-02-04T03:21:49.049Z,74.45
2019-02-04T03:25:57.149Z,74.15
2019-02-04T03:30:07.279Z,74.27
2019-02-04T03:34:15.187Z,74.00
2019-02-04T03:38:23.132Z,74.09
2019-02-04T03:42:31.026Z,74.17
2019-02-04T03:46:39.029Z,74.26
2019-02-04T03:50:46.960Z,74.65
2019-02-04T03:54:54.660Z,75.25
2019-02-04T03:59:04.538Z,75.52
2019-02-04T04:03:12.327Z,75.57
2019-02-04T04:07:20.105Z,75.62
2019-02-04T04:11:28.038Z,75.49
2019-02-04T04:15:35.543Z,75.28
2019-02-04T04:19:43.326Z,75.56
2019-02-04T04:23:51.034Z,75.78
2019-02-04T04:27:58.948Z,76.14
2019-02-04T04:32:06.455Z,75.64
2019-02-04T04:36:14.388Z,75.36
2019-02-04T04:40:22.193Z,75.71
2019-02-04T04:44:30.113Z,75.39
2019-02-04T04:48:37.639Z,75.18
2019-02-04T04:52:45.557Z,74.51
2019-02-04T04:56:53.472Z,75.12
2019-02-04T05:01:01.186Z,75.11
2019-02-04T05:05:10.039Z,75.34
2019-02-04T05:09:17.750Z,75.32
2019-02-04T05:13:25.245Z,74.81
2019-02-04T05:17:32.941Z,75.23
2019-02-04T05:21:40.686Z,75.96
2019-02-04T05:25:48.598Z,76.06
2019-02-04T05:29:56.512Z,75.91
2019-02-04T05:34:04.576Z,75.48
2019-02-04T05:38:12.478Z,75.78
2019-02-04T05:42:20.491Z,75.61
2019-02-04T05:46:29.422Z,76.62
2019-02-04T05:50:37.321Z,75.31
2019-02-04T05:54:45.090Z,74.62
2019-02-04T05:58:52.796Z,74.18
2019-02-04T06:03:00.489Z,74.44
2019-02-04T06:07:08.215Z,74.72
2019-02-04T06:11:15.931Z,76.48
2019-02-04T06:15:23.916Z,74.70
2019-02-04T06:19:31.619Z,74.51
2019-02-04T06:23:39.544Z,73.28
2019-02-04T06:27:47.444Z,73.66
2019-02-04T06:31:55.186Z,73.38
2019-02-04T06:36:03.112Z,72.59
2019-02-04T06:40:12.252Z,72.44
2019-02-04T06:44:19.981Z,72.17
2019-02-04T06:48:27.801Z,71.65
2019-02-04T06:52:35.718Z,71.10
2019-02-04T06:56:43.642Z,70.71
2019-02-04T07:00:51.649Z,71.14
2019-02-04T07:04:59.577Z,69.99
2019-02-04T07:09:11.279Z,67.50
2019-02-04T07:13:18.977Z,65.82
2019-02-04T07:17:26.694Z,64.86
2019-02-04T07:21:34.618Z,64.49
2019-02-04T07:25:42.542Z,64.57
2019-02-04T07:29:50.112Z,63.25
2019-02-04T07:33:57.831Z,63.53
2019-02-04T07:38:05.670Z,62.79
2019-02-04T07:42:13.639Z,62.42
2019-02-04T07:46:21.152Z,61.91
2019-02-04T07:50:29.077Z,62.34
2019-02-04T07:54:36.663Z,61.57
2019-02-04T07:58:44.176Z,61.19
2019-02-04T08:02:52.410Z,60.72
2019-02-04T08:07:00.115Z,59.98
2019-02-04T08:11:07.851Z,59.66
2019-02-04T08:15:18.328Z,58.88
2019-02-04T08:19:26.253Z,58.19
2019-02-04T08:23:34.646Z,59.55
2019-02-04T08:27:42.679Z,58.94
2019-02-04T08:31:50.926Z,59.35
2019-02-04T08:35:58.538Z,58.61
2019-02-04T08:40:07.265Z,58.61
2019-02-04T08:44:14.785Z,56.96
2019-02-04T08:48:22.723Z,56.96
2019-02-04T08:52:30.439Z,57.11
2019-02-04T08:56:38.349Z,55.76
2019-02-04T09:00:46.280Z,57.12
2019-02-04T09:04:53.801Z,57.24
2019-02-04T09:09:01.519Z,58.36
2019-02-04T09:13:10.386Z,57.54
2019-02-04T09:17:18.789Z,57.36
2019-02-04T09:21:26.682Z,54.68
2019-02-04T09:25:34.609Z,54.68
2019-02-04T09:29:42.328Z,53.95
2019-02-04T09:33:50.247Z,52.17
2019-02-04T09:37:58.190Z,51.99
2019-02-04T09:42:06.590Z,52.10
2019-02-04T09:46:14.520Z,50.47
2019-02-04T09:50:23.204Z,50.09
2019-02-04T09:54:30.918Z,49.35
2019-02-04T09:58:38.438Z,48.25
2019-02-04T10:02:46.487Z,47.98
2019-02-04T10:06:55.441Z,48.65
2019-02-04T10:11:03.019Z,49.24
2019-02-04T10:15:13.639Z,46.54
2019-02-04T10:19:21.658Z,47.08
2019-02-04T10:23:29.413Z,47.60
2019-02-04T10:27:37.445Z,45.52
2019-02-04T10:31:45.428Z,45.73
2019-02-04T10:35:53.552Z,46.32
2019-02-04T10:40:01.012Z,46.46
2019-02-04T10:44:08.734Z,45.38
2019-02-04T10:48:16.331Z,44.50
2019-02-04T10:52:24.232Z,44.48
2019-02-04T10:56:32.259Z,43.84
2019-02-04T11:00:41.053Z,43.95
2019-02-04T11:04:48.814Z,43.50
2019-02-04T11:08:56.835Z,44.44
2019-02-04T11:13:09.535Z,42.13
2019-02-04T11:17:17.568Z,41.10
2019-02-04T11:21:25.152Z,41.76
2019-02-04T11:25:33.004Z,41.76
2019-02-04T11:29:41.321Z,42.44
2019-02-04T11:33:49.297Z,42.42
2019-02-04T11:37:57.409Z,42.88
2019-02-04T11:42:05.711Z,42.71
2019-02-04T11:46:13.579Z,42.71
2019-02-04T11:50:21.345Z,42.29
2019-02-04T11:54:29.256Z,43.25
2019-02-04T11:58:37.457Z,42.62
2019-02-04T12:02:45.439Z,42.93
2019-02-04T12:06:53.200Z,41.82
2019-02-04T12:11:14.715Z,41.80
2019-02-04T12:15:23.669Z,42.23
2019-02-04T12:19:31.684Z,40.96
2019-02-04T12:23:39.488Z,41.38
2019-02-04T12:27:47.204Z,40.57
2019-02-04T12:31:55.393Z,40.54
2019-02-04T12:36:03.297Z,41.96
2019-02-04T12:40:12.213Z,41.38
2019-02-04T12:44:20.131Z,41.65
2019-02-04T12:48:28.260Z,41.71
2019-02-04T12:52:36.545Z,42.62
2019-02-04T12:56:44.333Z,40.94
2019-02-04T13:00:52.127Z,40.29
2019-02-04T13:04:59.775Z,41.78
2019-02-04T13:09:09.889Z,41.42
2019-02-04T13:13:20.625Z,42.05
2019-02-04T13:17:28.578Z,42.20
2019-02-04T13:21:45.066Z,44.04
2019-02-04T13:25:45.513Z,44.61
2019-02-04T13:29:53.033Z,45.55
2019-02-04T13:34:00.946Z,46.88
2019-02-04T13:38:08.576Z,47.58
2019-02-04T13:42:16.134Z,47.57
2019-02-04T13:46:24.276Z,47.81
2019-02-04T13:50:31.875Z,48.64
2019-02-04T13:54:39.519Z,50.02
2019-02-04T13:58:47.417Z,49.92
2019-02-04T14:02:59.364Z,49.76
2019-02-04T14:07:05.432Z,49.63
2019-02-04T14:11:13.341Z,49.15
2019-02-04T14:15:21.601Z,49.62
2019-02-04T14:19:29.112Z,50.23
2019-02-04T14:23:36.867Z,50.87
2019-02-04T14:27:47.401Z,51.58
2019-02-04T14:31:55.369Z,51.47
2019-02-04T14:36:03.077Z,51.68
2019-02-04T14:40:18.948Z,52.42
2019-02-04T14:44:45.808Z,52.54
2019-02-04T14:49:32.853Z,53.90
2019-02-04T14:54:22.043Z,53.33
2019-02-04T14:59:03.003Z,54.10
2019-02-04T15:03:34.430Z,54.71
2019-02-04T15:08:33.405Z,55.21
2019-02-04T15:13:09.088Z,56.41
2019-02-04T15:18:05.098Z,56.46
2019-02-04T15:23:08.541Z,57.14
2019-02-04T15:27:58.758Z,56.29
2019-02-04T15:32:41.574Z,56.71
2019-02-04T15:37:35.542Z,57.62
2019-02-04T15:42:08.991Z,58.71
2019-02-04T15:47:09.706Z,59.24
2019-02-04T15:51:28.754Z,61.70
2019-02-04T15:55:36.374Z,58.46
2019-02-04T15:59:44.297Z,59.27
2019-02-04T16:03:52.222Z,59.53
2019-02-04T16:08:00.285Z,60.32
2019-02-04T16:12:08.197Z,60.91
2019-02-04T16:16:16.308Z,61.90
2019-02-04T16:20:25.322Z,61.39
2019-02-04T16:24:34.005Z,61.61
2019-02-04T16:28:42.879Z,62.04
2019-02-04T16:32:52.960Z,63.17
2019-02-04T16:37:00.375Z,62.38
2019-02-04T16:41:08.102Z,63.12
2019-02-04T16:45:17.693Z,62.40
2019-02-04T16:49:25.720Z,61.98
2019-02-04T16:53:33.664Z,62.41
2019-02-04T16:57:41.486Z,61.43
2019-02-04T17:01:49.405Z,60.02
2019-02-04T17:05:56.941Z,59.25
2019-02-04T17:10:06.680Z,58.63
2019-02-04T17:14:14.275Z,58.03
2019-02-04T17:18:22.016Z,58.31
2019-02-04T17:22:29.776Z,58.85
2019-02-04T17:26:37.728Z,60.96
2019-02-04T17:30:45.455Z,62.78
2019-02-04T17:34:54.105Z,62.15
2019-02-04T17:39:02.049Z,61.72
2019-02-04T17:43:11.513Z,61.65
2019-02-04T17:47:19.246Z,62.38
2019-02-04T17:51:31.826Z,63.65
2019-02-04T17:55:38.196Z,62.95
2019-02-04T17:59:47.280Z,62.78
2019-02-04T18:03:56.628Z,63.41
2019-02-04T18:08:05.927Z,63.43
2019-02-04T18:12:13.873Z,62.93
2019-02-04T18:16:22.113Z,63.19
2019-02-04T18:20:29.888Z,64.21
2019-02-04T18:24:39.004Z,63.18
2019-02-04T18:28:47.910Z,63.78
2019-02-04T18:32:56.005Z,63.98
2019-02-04T18:37:04.892Z,63.71
2019-02-04T18:41:12.811Z,64.94
2019-02-04T18:45:23.316Z,65.46
2019-02-04T18:49:31.366Z,65.68
2019-02-04T18:53:39.826Z,65.66
2019-02-04T18:57:48.083Z,66.32
2019-02-04T19:01:55.822Z,66.36
2019-02-04T19:06:06.431Z,65.92
2019-02-04T19:10:16.767Z,66.10
2019-02-04T19:14:25.439Z,66.10
2019-02-04T19:18:33.444Z,66.37
2019-02-04T19:22:43.715Z,66.20
2019-02-04T19:26:54.005Z,65.83
2019-02-04T19:31:05.988Z,65.44
2019-02-04T19:35:13.951Z,65.62
2019-02-04T19:39:21.897Z,67.15
2019-02-04T19:43:29.744Z,67.12
2019-02-04T19:47:37.488Z,66.52
2019-02-04T19:51:45.518Z,67.23
2019-02-04T19:55:53.157Z,67.40
2019-02-04T20:00:02.848Z,67.21
2019-02-04T20:04:11.248Z,67.17
2019-02-04T20:08:19.102Z,67.56
2019-02-04T20:12:27.351Z,66.78
2019-02-04T20:16:36.027Z,66.70
2019-02-04T20:20:43.966Z,66.64
2019-02-04T20:24:51.490Z,66.61
2019-02-04T20:28:59.722Z,66.21
2019-02-04T20:33:10.876Z,65.87
2019-02-04T20:37:18.926Z,66.70
2019-02-04T20:41:26.894Z,66.62
2019-02-04T20:45:35.043Z,67.06
2019-02-04T20:49:42.800Z,68.38
2019-02-04T20:53:50.824Z,68.06
2019-02-04T20:57:58.492Z,67.90
2019-02-04T21:02:06.300Z,68.49
2019-02-04T21:06:14.038Z,68.58
2019-02-04T21:10:22.614Z,67.80
2019-02-04T21:14:30.346Z,68.62
2019-02-04T21:18:38.289Z,68.25
2019-02-04T21:22:46.177Z,68.30
2019-02-04T21:26:54.105Z,67.47
2019-02-04T21:31:02.052Z,67.54
2019-02-04T21:35:10.324Z,69.01
2019-02-04T21:39:17.857Z,69.88
2019-02-04T21:43:25.786Z,69.83
2019-02-04T21:47:33.708Z,70.25
2019-02-04T21:51:41.219Z,69.71
2019-02-04T21:55:49.144Z,69.40
2019-02-04T21:59:57.053Z,69.92
2019-02-04T22:04:05.269Z,69.77
2019-02-04T22:08:13.257Z,71.95
2019-02-04T22:12:21.455Z,71.63
2019-02-04T22:16:29.173Z,72.20
2019-02-04T22:20:37.381Z,72.10
2019-02-04T22:24:45.895Z,71.95
2019-02-04T22:28:53.810Z,71.92
2019-02-04T22:33:01.859Z,72.18
2019-02-04T22:37:10.953Z,72.52
2019-02-04T22:41:18.889Z,72.63
2019-02-04T22:45:27.382Z,72.75
2019-02-04T22:49:35.265Z,72.89
2019-02-04T22:53:43.172Z,73.08
2019-02-04T22:57:51.182Z,73.27
2019-02-04T23:01:59.779Z,73.10
2019-02-04T23:06:07.577Z,72.99
2019-02-04T23:10:15.626Z,72.80
2019-02-04T23:14:23.546Z,72.40
2019-02-04T23:18:31.459Z,72.08
2019-02-04T23:22:39.068Z,71.32
2019-02-04T23:26:46.873Z,71.73
2019-02-04T23:30:54.879Z,72.50
2019-02-04T23:35:02.380Z,72.91
2019-02-04T23:39:11.414Z,73.27
2019-02-04T23:43:19.093Z,74.45
2019-02-04T23:47:26.801Z,75.14
2019-02-04T23:51:34.797Z,75.73
2019-02-04T23:55:42.504Z,75.92
2019-02-04T23:59:50.408Z,76.25
